Tropical Cyclones
[Index]
Main Index Home Page Stock Weather Photos Extreme Storms Discussion Storm News and Storm Chasing Reports Tropical Cyclones / Hurricanes / Typhoons Weather Data and Links Wild Fires / Bushfires Weather Observation Techniques Weather Picture Catalogue Tornado Pictures and Reports Stock Video Footage and DVDs for sale
Season 1992-1993 Tropical Cyclone POLLY Track Map
Season 1992-1993 Summaries: [BoM-AU] [JTWC-AU] [JTWC-SIO] [JTWC-SPAC] [JTWC-SH]
<<- Previous TC | JTWC 1992-1993 Season | Next TC ->>

click for intensity scale information  Lat/long Grid: Show Hide

 Date Labels: Show Hide

Joint Typhoon Warning Centre Cyclone Data

Name: POLLY

22 Feb 1993 06:00 UTC to 04 Mar 1993 00:00 UTC

    date/time    lat    long     hPa   cat  kts
1993-02-22 06   11.5   161.2                  20          
1993-02-22 12   11.6   160.5                  20          
1993-02-22 18   11.7   159.8                  20          
1993-02-23 00   11.9   159.2                  20          
1993-02-23 06   12.2   158.7                  25          
1993-02-23 12   12.6   158.3                  25          
1993-02-23 18   13.1   158.0                  25          
1993-02-24 00   13.6   157.9                  25          
1993-02-24 06   14.1   157.8                  25          
1993-02-24 12   14.7   157.7                  30          
1993-02-24 18   15.2   157.8                  30          
1993-02-25 00   15.8   157.9                  35          
1993-02-25 06   16.3   158.0            1     40          
1993-02-25 12   16.8   158.2            1     45          
1993-02-25 18   17.2   158.4            2     55          
1993-02-26 00   17.5   158.6            2     60          
1993-02-26 06   17.8   158.8            2     65          
1993-02-26 12   18.0   159.1            2     70          
1993-02-26 18   18.1   159.3            2     70          
1993-02-27 00   18.2   159.6            3     75          
1993-02-27 06   18.2   159.9            3     80          
1993-02-27 12   18.3   160.1            3     85          
1993-02-27 18   18.4   160.3            3     90          
1993-02-28 00   18.6   160.3            3     95          
1993-02-28 06   19.1   160.1            4    100          
1993-02-28 12   19.5   159.9            4    100          
1993-02-28 18   20.1   159.9            4    100          
1993-03-01 00   20.8   160.3            3     95          
1993-03-01 06   21.5   161.0            3     90          
1993-03-01 12   22.3   162.2            3     90          
1993-03-01 18   23.3   163.8            3     90          
1993-03-02 00   24.6   165.6            3     85          
1993-03-02 06   25.9   167.6            3     80          
1993-03-02 12   27.3   169.7            3     75          
1993-03-02 18   28.8   171.7            2     65          
1993-03-03 00   30.2   173.4            2     55          
1993-03-03 06   31.0   174.9            1     45          
1993-03-03 12   31.6   176.5                  35          
1993-03-03 18   32.1   178.2                  35          
1993-03-04 00   32.5   179.9                  35          
Winds are 1-min average.

Tropical cyclone tracks developed by Michael Bath using data from the Joint Typhoon Warning Centre Best Tracks and Google Maps.


[Australian Severe Weather index] [Copyright Notice] [Email Contacts] [Search This Site] [Privacy Policy]
Document: tropical_cyclone_polly.htm Updated: 18 September 2016